Time;durP1;ratioP1;P1;durP2;ratioP2;P2;SDS_P1;SDS_P2;PMS_P1;PMS_P2;Temp;Humidity;BMP_temperature;BMP_pressure;BME280_temperature;BME280_humidity;BME280_pressure;Samples;Min_cycle;Max_cycle;Signal;HPM_P1;HPM_P2
2021/10/20 00:01:15;;;;;;;9.43;5.32;;;;;;;12.97;100.00;100833.94;4982270;28;20467;-77
2021/10/20 00:03:42;;;;;;;9.85;4.88;;;;;;;12.95;100.00;100830.50;4977827;28;20065;-77
2021/10/20 00:06:08;;;;;;;10.82;4.80;;;;;;;12.94;100.00;100829.63;4981655;28;20049;-76
2021/10/20 00:08:36;;;;;;;8.80;4.65;;;;;;;12.92;100.00;100826.22;4978755;28;20050;-75
2021/10/20 00:11:03;;;;;;;9.02;4.88;;;;;;;12.94;100.00;100823.56;4983579;28;20043;-77
2021/10/20 00:13:29;;;;;;;8.68;4.20;;;;;;;12.90;100.00;100831.47;4977358;28;20058;-76
2021/10/20 00:15:56;;;;;;;10.00;4.40;;;;;;;12.88;100.00;100828.03;4974028;28;20042;-79
2021/10/20 00:18:23;;;;;;;10.73;4.55;;;;;;;12.85;100.00;100825.53;4975223;28;20042;-77
2021/10/20 00:20:51;;;;;;;9.77;4.45;;;;;;;12.83;100.00;100810.78;4976723;28;20054;-77
2021/10/20 00:23:17;;;;;;;9.27;4.75;;;;;;;12.80;100.00;100813.50;4981169;28;20130;-76
2021/10/20 00:25:46;;;;;;;9.13;5.28;;;;;;;12.78;100.00;100812.69;4980392;28;20089;-77
2021/10/20 00:28:13;;;;;;;8.18;4.75;;;;;;;12.74;100.00;100812.75;4976968;28;20050;-77
2021/10/20 00:30:39;;;;;;;8.52;4.50;;;;;;;12.75;100.00;100805.81;4976057;28;20076;-77
2021/10/20 00:33:06;;;;;;;9.93;5.35;;;;;;;12.71;100.00;100805.03;4977476;28;20038;-76
2021/10/20 00:35:33;;;;;;;8.63;4.40;;;;;;;12.71;100.00;100792.00;4977642;28;20051;-77
2021/10/20 00:37:59;;;;;;;10.32;4.82;;;;;;;12.70;100.00;100799.84;4976739;28;20101;-76
2021/10/20 00:40:26;;;;;;;10.52;5.20;;;;;;;12.66;100.00;100788.63;4980258;28;20046;-76
2021/10/20 00:42:53;;;;;;;7.38;4.82;;;;;;;12.63;100.00;100788.69;4979828;28;20054;-77
2021/10/20 00:45:20;;;;;;;8.05;5.05;;;;;;;12.61;100.00;100793.13;4981964;28;20054;-74
2021/10/20 00:47:46;;;;;;;11.52;4.50;;;;;;;12.59;100.00;100787.09;4988600;28;20047;-76
2021/10/20 00:50:16;;;;;;;8.65;4.30;;;;;;;12.56;100.00;100781.94;4976819;28;20042;-77
2021/10/20 00:52:43;;;;;;;8.95;4.63;;;;;;;12.54;100.00;100783.72;4981090;28;20050;-76
2021/10/20 00:55:12;;;;;;;9.02;3.88;;;;;;;12.49;100.00;100777.78;4978779;28;20057;-75
2021/10/20 00:57:39;;;;;;;7.38;3.58;;;;;;;12.50;100.00;100771.69;4982992;28;20065;-76
2021/10/20 01:00:10;;;;;;;8.05;3.70;;;;;;;12.47;100.00;100769.16;4987832;28;20046;-76
2021/10/20 01:02:39;;;;;;;8.77;4.20;;;;;;;12.55;99.70;100761.97;4987875;28;20042;-77
2021/10/20 01:05:06;;;;;;;7.63;3.20;;;;;;;12.59;98.59;100763.59;4983388;28;20484;-74
2021/10/20 01:07:33;;;;;;;6.70;2.95;;;;;;;12.67;98.29;100753.81;4982839;28;20061;-77
2021/10/20 01:10:00;;;;;;;6.22;2.78;;;;;;;12.78;96.80;100755.25;4982616;28;20050;-76
2021/10/20 01:12:27;;;;;;;6.22;2.47;;;;;;;12.97;95.07;100751.22;4978963;28;20045;-75
2021/10/20 01:14:54;;;;;;;5.43;2.42;;;;;;;13.10;94.88;100748.25;4986040;28;20058;-77
2021/10/20 01:17:22;;;;;;;7.20;2.63;;;;;;;13.21;93.92;100733.97;4980743;28;20048;-76
2021/10/20 01:19:49;;;;;;;5.05;2.60;;;;;;;13.29;92.78;100733.75;4984871;28;20042;-77
2021/10/20 01:22:17;;;;;;;5.47;2.40;;;;;;;13.31;93.58;100734.56;4979760;28;20050;-77
2021/10/20 01:24:44;;;;;;;7.65;2.90;;;;;;;13.42;92.21;100736.03;4978806;28;20047;-76
2021/10/20 01:27:11;;;;;;;8.73;2.75;;;;;;;13.52;91.27;100722.59;4982110;28;20055;-77
2021/10/20 01:29:37;;;;;;;4.22;2.17;;;;;;;13.56;91.51;100730.34;4983365;28;20046;-76
2021/10/20 01:32:06;;;;;;;4.75;2.38;;;;;;;13.55;92.03;100708.56;4979759;28;20646;-77
2021/10/20 01:34:32;;;;;;;6.05;2.58;;;;;;;13.55;91.89;100715.56;4979414;28;20054;-76
2021/10/20 01:37:02;;;;;;;5.07;2.58;;;;;;;13.58;90.57;100715.47;4977692;28;20954;-77
2021/10/20 01:39:30;;;;;;;5.85;2.50;;;;;;;13.65;90.09;100703.94;4981967;28;20066;-77
2021/10/20 01:41:56;;;;;;;5.53;2.55;;;;;;;13.67;90.42;100707.34;4983268;28;20050;-76
2021/10/20 01:44:23;;;;;;;4.43;2.55;;;;;;;13.71;89.87;100703.72;4983438;28;20050;-76
2021/10/20 01:46:50;;;;;;;6.90;2.70;;;;;;;13.73;89.21;100701.03;4979758;28;20132;-77
2021/10/20 01:49:16;;;;;;;5.18;2.20;;;;;;;13.76;89.10;100698.34;4975851;28;20057;-76
2021/10/20 01:51:43;;;;;;;4.68;2.22;;;;;;;13.70;88.80;100701.16;4983209;28;20053;-76
2021/10/20 01:54:10;;;;;;;5.72;2.75;;;;;;;13.80;88.18;100694.72;4980758;28;20058;-76
2021/10/20 01:56:38;;;;;;;7.72;2.70;;;;;;;13.84;87.42;100698.91;4979079;28;20377;-76
2021/10/20 01:59:04;;;;;;;6.13;2.42;;;;;;;13.82;88.23;100690.31;4975540;28;20050;-77
2021/10/20 02:01:30;;;;;;;7.45;3.00;;;;;;;13.85;88.25;100690.19;4980890;28;20050;-76
2021/10/20 02:03:57;;;;;;;6.03;2.45;;;;;;;13.87;87.92;100679.69;4976788;28;20057;-77
2021/10/20 02:06:24;;;;;;;6.20;2.53;;;;;;;13.91;87.37;100676.03;4981753;28;20065;-76
2021/10/20 02:08:50;;;;;;;7.25;2.70;;;;;;;13.89;87.69;100673.50;4982026;28;20099;-76
2021/10/20 02:11:19;;;;;;;5.43;2.20;;;;;;;13.97;87.78;100670.63;4980046;28;20065;-76
2021/10/20 02:13:47;;;;;;;4.32;2.10;;;;;;;13.88;87.23;100666.56;4980909;28;20102;-77
2021/10/20 02:16:14;;;;;;;5.35;2.30;;;;;;;13.89;87.66;100675.25;4969431;28;20127;-77
2021/10/20 02:18:40;;;;;;;6.82;2.28;;;;;;;13.99;87.11;100669.66;4981584;28;20050;-76
2021/10/20 02:21:07;;;;;;;7.50;2.70;;;;;;;13.97;86.59;100666.22;4978137;28;20047;-76
2021/10/20 02:23:34;;;;;;;4.85;2.90;;;;;;;13.97;86.50;100660.16;4976306;28;20058;-76
2021/10/20 02:26:00;;;;;;;11.60;2.72;;;;;;;13.93;87.24;100655.94;4979641;28;20070;-76
2021/10/20 02:28:28;;;;;;;5.78;2.28;;;;;;;13.97;87.08;100653.16;4977951;28;20049;-76
2021/10/20 02:30:56;;;;;;;7.70;2.67;;;;;;;13.90;87.32;100642.97;4979135;28;20057;-76
2021/10/20 02:33:22;;;;;;;6.07;2.90;;;;;;;13.98;86.85;100640.91;4977382;28;20069;-76
2021/10/20 02:35:49;;;;;;;6.90;2.75;;;;;;;13.91;87.19;100639.44;4981189;28;20046;-76
2021/10/20 02:38:15;;;;;;;5.13;2.60;;;;;;;13.94;86.79;100636.72;4978578;28;20046;-76
2021/10/20 02:40:42;;;;;;;4.00;2.15;;;;;;;13.86;87.08;100636.97;4980162;28;20057;-77
2021/10/20 02:43:09;;;;;;;6.88;2.75;;;;;;;13.94;86.99;100632.34;4978058;28;20057;-76
2021/10/20 02:45:35;;;;;;;3.97;2.13;;;;;;;13.97;87.14;100624.41;4983892;28;20049;-77
2021/10/20 02:48:03;;;;;;;6.25;2.75;;;;;;;13.92;87.31;100610.66;4978862;28;20475;-74
2021/10/20 02:50:30;;;;;;;4.57;2.55;;;;;;;13.92;87.37;100621.09;4980889;28;20039;-76
2021/10/20 02:52:56;;;;;;;5.82;2.80;;;;;;;13.95;86.96;100618.34;4982880;28;20046;-76
2021/10/20 02:55:23;;;;;;;4.68;2.45;;;;;;;13.86;87.61;100615.22;4977656;28;20125;-76
2021/10/20 02:57:50;;;;;;;5.70;2.90;;;;;;;13.92;86.71;100608.03;4982469;28;20046;-76
2021/10/20 03:00:17;;;;;;;8.25;2.95;;;;;;;13.97;87.47;100611.31;4975589;28;20122;-76
2021/10/20 03:02:43;;;;;;;4.65;2.30;;;;;;;13.96;86.97;100614.84;4980369;28;20050;-77
2021/10/20 03:05:11;;;;;;;5.88;2.38;;;;;;;13.93;87.15;100609.72;4983166;28;20039;-76
2021/10/20 03:07:38;;;;;;;6.32;2.78;;;;;;;13.96;87.18;100608.78;4988599;28;20550;-77
2021/10/20 03:10:05;;;;;;;5.88;2.63;;;;;;;13.93;87.42;100609.72;4980474;28;20510;-75
2021/10/20 03:12:32;;;;;;;5.07;2.50;;;;;;;13.94;87.35;100619.25;4974833;28;20133;-76
2021/10/20 03:14:58;;;;;;;6.35;2.35;;;;;;;13.86;87.02;100613.44;4984581;28;20056;-76
2021/10/20 03:17:25;;;;;;;6.90;3.05;;;;;;;13.87;87.53;100609.94;4977626;28;20058;-76
2021/10/20 03:19:51;;;;;;;5.50;2.45;;;;;;;13.77;88.22;100606.81;4975349;28;20043;-76
2021/10/20 03:22:19;;;;;;;7.93;2.65;;;;;;;13.83;88.30;100609.19;4981424;28;20046;-76
2021/10/20 03:24:46;;;;;;;4.80;2.42;;;;;;;13.86;87.73;100610.00;4981984;28;20099;-77
2021/10/20 03:27:12;;;;;;;7.03;2.45;;;;;;;13.78;87.78;100612.88;4982780;28;20054;-76
2021/10/20 03:29:39;;;;;;;5.20;2.88;;;;;;;13.73;88.10;100615.66;4975281;28;20053;-75
2021/10/20 03:32:06;;;;;;;5.00;2.45;;;;;;;13.70;89.41;100609.66;4986658;28;20053;-77
2021/10/20 03:34:32;;;;;;;5.45;2.63;;;;;;;13.71;89.05;100606.16;4979757;28;20042;-76
2021/10/20 03:36:59;;;;;;;8.05;2.80;;;;;;;13.80;88.97;100600.59;4989616;28;20093;-74
2021/10/20 03:39:26;;;;;;;6.03;3.03;;;;;;;13.72;89.08;100600.03;4990569;28;20046;-76
2021/10/20 03:41:53;;;;;;;6.18;2.80;;;;;;;13.71;88.97;100596.53;4978725;28;20047;-76
2021/10/20 03:44:20;;;;;;;6.70;2.95;;;;;;;13.68;89.67;100592.28;4985348;28;20039;-76
2021/10/20 03:46:46;;;;;;;6.13;3.25;;;;;;;13.67;89.83;100590.56;4982362;28;20046;-76
2021/10/20 03:49:12;;;;;;;6.35;3.15;;;;;;;13.64;90.08;100584.59;4975027;28;20038;-76
2021/10/20 03:51:39;;;;;;;5.88;3.05;;;;;;;13.66;89.69;100583.63;4976119;28;20046;-76
2021/10/20 03:54:05;;;;;;;7.18;2.80;;;;;;;13.66;89.93;100582.78;4985390;28;20039;-76
2021/10/20 03:56:33;;;;;;;6.43;2.88;;;;;;;13.66;90.36;100581.00;4986282;28;20058;-76
2021/10/20 03:58:59;;;;;;;6.32;3.28;;;;;;;13.73;90.78;100575.56;4982330;28;20038;-76
2021/10/20 04:01:26;;;;;;;7.15;3.00;;;;;;;13.68;91.01;100570.50;4983656;28;20061;-76
2021/10/20 04:03:53;;;;;;;8.70;3.22;;;;;;;13.72;90.45;100566.03;4982061;28;20106;-76
2021/10/20 04:06:19;;;;;;;5.78;2.95;;;;;;;13.66;90.44;100572.34;4980315;28;20085;-77
2021/10/20 04:08:46;;;;;;;6.63;3.28;;;;;;;13.67;90.69;100568.81;4976658;28;20405;-76
2021/10/20 04:11:13;;;;;;;6.93;3.25;;;;;;;13.59;91.02;100566.47;4979180;28;20046;-75
2021/10/20 04:13:41;;;;;;;11.40;3.13;;;;;;;13.59;90.71;100565.59;4972358;28;20043;-76
2021/10/20 04:16:10;;;;;;;6.53;3.15;;;;;;;13.60;90.90;100564.69;4979938;28;20054;-75
2021/10/20 04:18:36;;;;;;;5.15;3.08;;;;;;;13.62;91.27;100560.28;4988142;28;20101;-75
2021/10/20 04:21:03;;;;;;;5.03;2.58;;;;;;;13.60;91.31;100555.09;4986979;28;20050;-76
2021/10/20 04:23:29;;;;;;;5.65;2.83;;;;;;;13.56;91.36;100569.16;4988549;28;20050;-74
2021/10/20 04:25:56;;;;;;;9.43;3.08;;;;;;;13.55;91.59;100559.63;4984816;28;20046;-76
2021/10/20 04:28:22;;;;;;;6.70;3.08;;;;;;;13.50;91.53;100553.72;4981048;28;20038;-75
2021/10/20 04:30:50;;;;;;;10.40;3.70;;;;;;;13.44;92.17;100540.84;4987882;28;20073;-76
2021/10/20 04:33:16;;;;;;;7.00;3.33;;;;;;;13.42;92.02;100555.75;4986827;28;20096;-74
2021/10/20 04:35:43;;;;;;;10.98;3.42;;;;;;;13.44;91.90;100548.69;4981403;28;20042;-76
2021/10/20 04:38:09;;;;;;;5.95;3.03;;;;;;;13.46;91.83;100550.38;4981500;28;20423;-76
2021/10/20 04:40:36;;;;;;;5.93;3.22;;;;;;;13.42;92.29;100535.69;4981800;28;20112;-75
2021/10/20 04:43:02;;;;;;;8.35;2.78;;;;;;;13.44;92.33;100535.63;4981521;28;20882;-75
2021/10/20 04:45:28;;;;;;;6.85;3.25;;;;;;;13.42;92.51;100527.84;4982836;28;20054;-76
2021/10/20 04:47:56;;;;;;;8.77;3.05;;;;;;;13.40;93.03;100534.03;4983542;28;20042;-75
2021/10/20 04:50:23;;;;;;;6.97;3.33;;;;;;;13.43;93.38;100526.06;4976281;28;20047;-75
2021/10/20 04:52:49;;;;;;;7.78;3.40;;;;;;;13.41;93.18;100525.28;4984869;28;20050;-76
2021/10/20 04:55:16;;;;;;;6.68;3.20;;;;;;;13.36;92.97;100523.66;4989772;28;20042;-75
2021/10/20 04:57:48;;;;;;;7.00;2.92;;;;;;;13.35;93.47;100518.50;4980665;28;20058;-75
2021/10/20 05:00:15;;;;;;;6.32;3.40;;;;;;;13.35;93.21;100519.31;4981900;28;20050;-77
2021/10/20 05:02:42;;;;;;;8.05;3.70;;;;;;;13.31;93.35;100519.50;4988617;28;20054;-75
2021/10/20 05:05:10;;;;;;;7.63;3.95;;;;;;;13.28;93.60;100504.78;4984769;28;20046;-75
2021/10/20 05:07:46;;;;;;;7.55;3.90;;;;;;;13.28;93.73;100504.78;4984314;28;20101;-75
2021/10/20 05:10:12;;;;;;;6.68;3.90;;;;;;;13.29;94.13;100500.41;4992262;28;20097;-75
2021/10/20 05:12:38;;;;;;;9.57;4.22;;;;;;;13.33;93.53;100502.00;4989247;28;20046;-75
2021/10/20 05:15:05;;;;;;;9.40;4.00;;;;;;;13.29;93.85;100500.41;4983618;28;20104;-76
2021/10/20 05:17:31;;;;;;;9.18;3.80;;;;;;;13.32;93.77;100489.84;4987159;28;20058;-76
2021/10/20 05:19:58;;;;;;;7.50;3.90;;;;;;;13.28;94.07;100486.50;4981777;28;20422;-76
2021/10/20 05:22:26;;;;;;;9.77;3.78;;;;;;;13.26;94.21;100477.00;4989427;28;20496;-75
2021/10/20 05:24:52;;;;;;;5.70;3.55;;;;;;;13.29;94.72;100469.91;4989736;28;20080;-75
2021/10/20 05:27:18;;;;;;;8.77;3.65;;;;;;;13.28;94.96;100464.72;4989657;28;20050;-77
2021/10/20 05:29:45;;;;;;;8.93;4.20;;;;;;;13.29;94.70;100459.47;4973871;28;20054;-75
2021/10/20 05:32:11;;;;;;;10.25;4.50;;;;;;;13.29;94.92;100456.00;4983969;28;20054;-75
2021/10/20 05:34:38;;;;;;;8.18;3.97;;;;;;;13.33;94.88;100445.38;4987436;28;20046;-75
2021/10/20 05:37:04;;;;;;;8.02;3.97;;;;;;;13.33;94.63;100448.00;4987806;28;20050;-76
2021/10/20 05:39:32;;;;;;;12.75;4.63;;;;;;;13.33;94.52;100436.69;4982084;28;20046;-75
2021/10/20 05:41:59;;;;;;;9.25;3.78;;;;;;;13.31;94.80;100439.38;4987455;28;20053;-75
2021/10/20 05:44:25;;;;;;;8.27;3.70;;;;;;;13.34;95.03;100433.19;4977647;28;20046;-75
2021/10/20 05:46:52;;;;;;;7.35;3.90;;;;;;;13.30;94.72;100419.38;4979929;28;20085;-74
2021/10/20 05:49:19;;;;;;;6.72;4.45;;;;;;;13.30;94.86;100413.28;4981788;28;20138;-75
2021/10/20 05:51:45;;;;;;;8.70;3.88;;;;;;;13.25;95.10;100418.69;4980081;28;20054;-77
2021/10/20 05:54:12;;;;;;;6.72;4.10;;;;;;;13.26;95.33;100407.34;4983202;28;20050;-75
2021/10/20 05:56:40;;;;;;;8.40;4.20;;;;;;;13.24;95.66;100403.91;4985484;28;20095;-75
2021/10/20 05:59:06;;;;;;;8.07;4.07;;;;;;;13.22;95.81;100400.53;4989048;28;20059;-76
2021/10/20 06:01:32;;;;;;;8.95;4.53;;;;;;;13.26;95.87;100394.28;4986781;28;20058;-75
2021/10/20 06:03:59;;;;;;;8.05;4.35;;;;;;;13.21;95.87;100389.22;4983423;28;20053;-74
2021/10/20 06:06:26;;;;;;;7.97;4.60;;;;;;;13.21;96.01;100396.22;4982622;28;20049;-75
2021/10/20 06:08:53;;;;;;;10.85;5.70;;;;;;;13.19;96.01;100395.41;4986747;28;20054;-75
2021/10/20 06:11:20;;;;;;;6.72;3.97;;;;;;;13.18;96.24;100394.53;4981560;28;20049;-75
2021/10/20 06:13:48;;;;;;;7.05;4.50;;;;;;;13.16;96.38;100401.59;4982984;28;20066;-75
2021/10/20 06:16:15;;;;;;;7.90;4.60;;;;;;;13.17;96.29;100403.31;4984633;28;20050;-76
2021/10/20 06:18:41;;;;;;;8.73;3.97;;;;;;;13.22;95.87;100400.53;4979234;28;20081;-77
2021/10/20 06:21:08;;;;;;;10.82;3.95;;;;;;;13.17;96.38;100392.88;4977429;28;20077;-76
2021/10/20 06:23:34;;;;;;;9.23;4.22;;;;;;;13.20;96.40;100384.91;4986423;28;20069;-76
2021/10/20 06:26:01;;;;;;;7.72;3.92;;;;;;;13.22;96.22;100396.16;4981094;28;20567;-76
2021/10/20 06:28:27;;;;;;;12.55;4.95;;;;;;;13.26;95.92;100394.28;4979820;28;20046;-75
2021/10/20 06:30:55;;;;;;;9.50;4.38;;;;;;;13.26;96.10;100386.44;4979004;28;20058;-75
2021/10/20 06:33:21;;;;;;;6.97;3.97;;;;;;;13.24;95.81;100388.25;4981419;28;20046;-76
2021/10/20 06:35:48;;;;;;;9.27;4.47;;;;;;;13.27;95.49;100388.13;4984582;28;20080;-75
2021/10/20 06:38:14;;;;;;;11.45;4.25;;;;;;;13.30;95.22;100392.41;4984792;28;20054;-76
2021/10/20 06:40:41;;;;;;;8.98;4.05;;;;;;;13.32;95.41;100386.22;4983379;28;20053;-78
2021/10/20 06:43:07;;;;;;;10.10;4.28;;;;;;;13.33;95.48;100374.84;4977097;28;20050;-75
2021/10/20 06:45:34;;;;;;;9.77;4.30;;;;;;;13.37;95.33;100363.38;4976593;28;20047;-74
2021/10/20 06:48:02;;;;;;;10.10;5.35;;;;;;;13.37;95.80;100355.56;4979943;28;20054;-75
2021/10/20 06:50:29;;;;;;;10.75;4.22;;;;;;;13.35;95.33;100359.97;4977240;28;20820;-74
2021/10/20 06:52:55;;;;;;;6.75;4.50;;;;;;;13.44;95.93;100345.75;4978004;28;20057;-76
2021/10/20 06:55:22;;;;;;;9.23;4.28;;;;;;;13.48;95.54;100341.28;4975524;28;20057;-75
2021/10/20 06:57:48;;;;;;;10.57;5.05;;;;;;;13.53;95.28;100340.19;4976881;28;20063;-76
2021/10/20 07:00:15;;;;;;;9.13;4.00;;;;;;;13.60;94.93;100338.19;4979318;28;20049;-75
2021/10/20 07:02:41;;;;;;;9.70;4.20;;;;;;;13.61;95.21;100345.13;4981172;28;20046;-75
2021/10/20 07:05:10;;;;;;;9.02;5.32;;;;;;;13.65;95.02;100336.25;4980209;28;20055;-75
2021/10/20 07:07:37;;;;;;;13.13;4.75;;;;;;;13.67;94.64;100330.97;4979254;28;20046;-76
2021/10/20 07:10:04;;;;;;;7.75;4.88;;;;;;;13.68;95.12;100336.13;4976753;28;20698;-74
2021/10/20 07:12:32;;;;;;;9.80;5.03;;;;;;;13.70;94.90;100337.84;4980436;28;20054;-75
2021/10/20 07:14:59;;;;;;;9.02;4.57;;;;;;;13.68;94.44;100343.97;4977877;28;20125;-75
2021/10/20 07:17:25;;;;;;;8.13;4.70;;;;;;;13.68;94.57;100348.34;4981160;28;20050;-75
2021/10/20 07:19:52;;;;;;;15.32;5.53;;;;;;;13.71;94.25;100347.38;4977838;28;20038;-74
2021/10/20 07:22:20;;;;;;;8.95;4.82;;;;;;;13.81;94.16;100359.19;4975430;28;20079;-75
2021/10/20 07:24:46;;;;;;;7.80;4.00;;;;;;;13.84;93.68;100366.91;4978086;28;20415;-74
2021/10/20 07:27:13;;;;;;;9.63;5.00;;;;;;;13.85;93.99;100368.59;4979487;28;20057;-74
2021/10/20 07:29:44;;;;;;;9.98;5.20;;;;;;;13.86;93.97;100380.75;4978041;28;20058;-75
2021/10/20 07:32:11;;;;;;;9.50;4.82;;;;;;;13.79;94.51;100389.75;4973941;28;20057;-74
2021/10/20 07:34:37;;;;;;;8.48;4.45;;;;;;;13.91;94.33;100391.91;4977368;28;20051;-73
2021/10/20 07:37:04;;;;;;;11.07;5.88;;;;;;;13.97;94.04;100378.59;4978620;28;20085;-74
2021/10/20 07:39:33;;;;;;;10.77;5.38;;;;;;;14.03;93.95;100390.56;4978823;28;20464;-73
2021/10/20 07:41:59;;;;;;;11.60;5.10;;;;;;;14.02;94.07;100388.03;4973491;28;20058;-74
2021/10/20 07:44:26;;;;;;;10.93;5.10;;;;;;;14.09;93.96;100385.09;4974344;28;20649;-75
2021/10/20 07:46:52;;;;;;;13.93;4.97;;;;;;;14.13;94.00;100383.19;4971778;28;20055;-76
2021/10/20 07:49:19;;;;;;;9.75;4.60;;;;;;;14.21;94.01;100370.69;4978915;28;20046;-75
2021/10/20 07:51:45;;;;;;;10.32;5.78;;;;;;;14.35;94.19;100361.41;4979699;28;20050;-74
2021/10/20 07:54:11;;;;;;;10.20;4.80;;;;;;;14.39;93.93;100349.91;4983592;28;20063;-74
2021/10/20 07:56:42;;;;;;;11.45;5.03;;;;;;;14.41;94.29;100338.47;4979004;28;20508;-74
2021/10/20 07:59:09;;;;;;;8.98;4.55;;;;;;;14.48;94.15;100320.75;4983338;28;20128;-75
2021/10/20 08:01:35;;;;;;;13.98;4.95;;;;;;;14.59;93.75;100292.34;4979876;28;20170;-75
2021/10/20 08:04:02;;;;;;;9.38;5.22;;;;;;;14.62;93.55;100304.44;4978172;28;20674;-75
2021/10/20 08:06:28;;;;;;;11.40;4.60;;;;;;;14.73;93.72;100288.28;4977164;28;20416;-74
2021/10/20 08:08:55;;;;;;;10.07;4.57;;;;;;;14.76;92.79;100257.63;4989632;28;20053;-76
2021/10/20 08:11:21;;;;;;;12.57;5.05;;;;;;;14.79;92.93;100235.69;4979893;28;20050;-75
2021/10/20 08:13:49;;;;;;;11.13;5.50;;;;;;;14.84;93.17;100223.22;4982571;28;20291;-75
2021/10/20 08:16:16;;;;;;;14.00;5.60;;;;;;;14.89;92.82;100202.06;4985790;28;20053;-75
2021/10/20 08:18:42;;;;;;;15.35;6.35;;;;;;;14.91;93.24;100202.84;4977419;28;20058;-75
2021/10/20 08:21:08;;;;;;;13.82;6.20;;;;;;;15.01;92.97;100209.34;4979072;28;20042;-75
2021/10/20 08:23:35;;;;;;;13.48;6.75;;;;;;;15.12;92.29;100211.50;4983658;28;20057;-75
2021/10/20 08:26:02;;;;;;;14.63;6.30;;;;;;;15.16;92.60;100205.16;4984305;28;20673;-74
2021/10/20 08:28:28;;;;;;;11.35;5.40;;;;;;;15.24;92.44;100216.13;4982509;28;20046;-75
2021/10/20 08:30:56;;;;;;;11.32;4.78;;;;;;;15.53;91.74;100239.28;4984607;28;20050;-74
2021/10/20 08:33:22;;;;;;;12.77;5.93;;;;;;;15.66;91.20;100244.75;4984136;28;20050;-75
2021/10/20 08:35:48;;;;;;;9.32;5.00;;;;;;;15.68;91.01;100235.88;4981598;28;20535;-74
2021/10/20 08:38:15;;;;;;;10.38;4.88;;;;;;;15.78;90.78;100231.06;4983977;28;20057;-75
2021/10/20 08:40:45;;;;;;;10.68;5.32;;;;;;;15.96;90.18;100238.97;4982790;28;20050;-74
2021/10/20 08:43:12;;;;;;;8.30;4.22;;;;;;;16.14;88.82;100230.16;4985235;28;20061;-75
2021/10/20 08:45:39;;;;;;;10.18;4.25;;;;;;;16.26;88.67;100219.97;4982987;28;20416;-72
2021/10/20 08:48:07;;;;;;;8.13;4.97;;;;;;;16.26;88.07;100204.22;4984091;28;20058;-75
2021/10/20 08:50:35;;;;;;;7.90;4.50;;;;;;;16.28;87.93;100176.97;4990359;28;20050;-75
2021/10/20 08:53:03;;;;;;;9.40;4.50;;;;;;;16.21;88.64;100201.84;5001945;28;20118;-75
2021/10/20 08:55:30;;;;;;;7.30;4.65;;;;;;;16.23;88.43;100225.38;5010720;28;20030;-76
2021/10/20 08:57:57;;;;;;;8.38;4.90;;;;;;;16.22;88.15;100219.28;5007551;28;20039;-77
2021/10/20 09:00:25;;;;;;;10.90;4.90;;;;;;;16.15;88.55;100210.88;4999412;28;20050;-75
2021/10/20 09:02:51;;;;;;;8.05;4.20;;;;;;;16.20;88.63;100205.38;4978406;28;20066;-75
2021/10/20 09:05:22;;;;;;;8.68;4.38;;;;;;;16.22;89.48;100213.22;4981866;28;20050;-74
2021/10/20 09:07:50;;;;;;;12.68;5.10;;;;;;;16.25;88.61;100218.28;4980784;28;20061;-74
2021/10/20 09:10:18;;;;;;;11.32;4.80;;;;;;;16.09;89.66;100212.97;4979259;28;20094;-75
2021/10/20 09:12:46;;;;;;;7.43;4.82;;;;;;;16.20;90.05;100202.75;4981098;28;20058;-75
2021/10/20 09:15:18;;;;;;;10.85;4.50;;;;;;;16.27;89.94;100209.38;4977236;28;20477;-75
2021/10/20 09:17:47;;;;;;;9.38;4.70;;;;;;;16.10;90.86;100189.28;4981479;28;20065;-75
2021/10/20 09:20:22;;;;;;;9.05;5.03;;;;;;;16.09;91.22;100177.09;4981976;28;20062;-75
2021/10/20 09:23:11;;;;;;;7.78;5.00;;;;;;;16.12;90.96;100183.94;4979251;28;20066;-74
2021/10/20 09:25:40;;;;;;;10.20;5.53;;;;;;;16.21;90.71;100193.13;4972210;28;20051;-74
2021/10/20 09:28:09;;;;;;;11.00;4.45;;;;;;;16.37;89.78;100196.66;4982790;28;20054;-75
2021/10/20 09:30:39;;;;;;;9.32;5.10;;;;;;;16.38;89.65;100197.47;4975380;28;20051;-75
2021/10/20 09:33:07;;;;;;;12.80;5.18;;;;;;;16.38;89.27;100193.09;4980119;28;20510;-76
2021/10/20 09:35:36;;;;;;;9.13;5.75;;;;;;;16.46;88.63;100174.34;4983448;28;20054;-74
2021/10/20 09:38:04;;;;;;;8.82;4.68;;;;;;;16.56;88.71;100191.28;4983816;28;20436;-76
2021/10/20 09:40:36;;;;;;;8.98;5.20;;;;;;;16.42;88.04;100204.28;4981994;28;20571;-75
2021/10/20 09:43:05;;;;;;;9.15;4.57;;;;;;;16.44;88.00;100181.44;4979324;28;20046;-75
2021/10/20 09:45:35;;;;;;;10.45;4.45;;;;;;;16.53;87.07;100186.19;4977666;28;20054;-75
2021/10/20 09:48:16;;;;;;;8.13;4.50;;;;;;;16.54;87.14;100174.75;4979239;28;20065;-75
2021/10/20 09:50:56;;;;;;;10.82;4.95;;;;;;;16.72;86.86;100172.06;4979007;28;20500;-73
2021/10/20 09:53:24;;;;;;;10.55;4.70;;;;;;;16.92;84.58;100163.97;4982082;28;20053;-74
2021/10/20 09:55:51;;;;;;;20.73;11.30;;;;;;;17.00;84.39;100158.31;4977007;28;20061;-75
2021/10/20 09:58:18;;;;;;;13.48;7.15;;;;;;;16.99;84.22;100154.00;4981259;28;20090;-75
2021/10/20 10:00:45;;;;;;;12.73;9.10;;;;;;;17.02;83.95;100161.69;4979181;28;20050;-76
2021/10/20 10:03:12;;;;;;;8.60;4.68;;;;;;;17.02;84.56;100161.69;4981024;28;20062;-76
2021/10/20 10:05:39;;;;;;;6.93;4.38;;;;;;;17.12;83.46;100158.56;4981879;28;20046;-76
2021/10/20 10:08:07;;;;;;;7.82;4.35;;;;;;;17.16;82.58;100157.44;4975969;28;20054;-73
2021/10/20 10:10:33;;;;;;;8.02;4.47;;;;;;;17.22;83.11;100157.09;4978331;28;20054;-75
2021/10/20 10:13:06;;;;;;;6.60;4.13;;;;;;;17.18;82.98;100153.78;4977785;28;20065;-72
2021/10/20 10:15:37;;;;;;;8.35;4.80;;;;;;;17.25;82.01;100157.78;4980730;28;20161;-75
2021/10/20 10:18:04;;;;;;;8.50;4.72;;;;;;;17.25;82.41;100156.94;4982798;28;20461;-75
2021/10/20 10:20:32;;;;;;;6.50;4.25;;;;;;;17.20;82.60;100169.50;4980127;28;20133;-75
2021/10/20 10:23:02;;;;;;;7.20;4.45;;;;;;;17.07;83.83;100183.31;4979047;28;20054;-75
2021/10/20 10:25:36;;;;;;;9.80;4.60;;;;;;;17.09;84.77;100177.97;4978501;28;20059;-75
2021/10/20 10:28:22;;;;;;;9.03;4.90;;;;;;;16.85;86.03;100170.50;4976846;28;20046;-75
2021/10/20 10:30:49;;;;;;;;;;;;;;;16.85;85.49;100170.50;4980504;28;20054;-75
2021/10/20 10:33:20;;;;;;;8.20;5.05;;;;;;;16.74;86.20;100168.44;4972177;28;19937;-75
2021/10/20 10:36:02;;;;;;;9.32;4.75;;;;;;;16.71;85.80;100173.88;4979931;28;20067;-75
2021/10/20 10:38:36;;;;;;;10.25;4.93;;;;;;;16.74;85.82;100175.47;4980699;28;20054;-75
2021/10/20 10:41:23;;;;;;;8.38;4.78;;;;;;;16.81;85.54;100173.38;4977986;28;20225;-74
2021/10/20 10:44:16;;;;;;;8.23;4.45;;;;;;;16.71;86.03;100167.75;4975202;28;20063;-75
2021/10/20 10:47:11;;;;;;;8.35;4.85;;;;;;;16.87;84.99;100179.09;4978126;28;20503;-75
2021/10/20 10:49:40;;;;;;;7.30;4.47;;;;;;;16.74;85.37;100173.69;4957468;28;20057;-74
2021/10/20 10:52:22;;;;;;;7.90;4.95;;;;;;;16.81;85.43;100168.13;4978689;28;20077;-74
2021/10/20 10:55:01;;;;;;;7.43;4.50;;;;;;;16.75;85.45;100167.50;4976781;28;21305;-75
2021/10/20 10:57:41;;;;;;;8.35;4.63;;;;;;;16.75;84.49;100175.38;4976092;28;20058;-75
2021/10/20 11:00:11;;;;;;;10.02;4.60;;;;;;;16.92;83.09;100177.09;4977492;28;20050;-76
2021/10/20 11:02:46;;;;;;;7.95;4.97;;;;;;;16.88;83.70;100185.22;4976193;28;20049;-75
2021/10/20 11:05:13;;;;;;;7.97;4.63;;;;;;;16.91;83.53;100164.06;4978525;28;20050;-75
2021/10/20 11:07:44;;;;;;;8.65;4.78;;;;;;;16.91;83.72;100170.13;4974686;28;20069;-73
2021/10/20 11:10:11;;;;;;;7.93;4.53;;;;;;;16.91;83.75;100174.56;4981161;28;20142;-75
2021/10/20 11:12:39;;;;;;;7.43;4.60;;;;;;;17.05;83.27;100164.16;4977376;28;20054;-75
2021/10/20 11:15:06;;;;;;;8.52;4.57;;;;;;;17.11;82.47;100149.00;4979663;28;20447;-75
2021/10/20 11:17:33;;;;;;;10.07;4.40;;;;;;;17.16;82.37;100160.06;4969680;28;20057;-75
2021/10/20 11:20:05;;;;;;;9.50;4.75;;;;;;;17.13;82.57;100154.97;4979601;28;20050;-74
2021/10/20 11:22:33;;;;;;;9.00;4.75;;;;;;;17.10;83.11;100161.25;4969409;28;20046;-76
2021/10/20 11:25:00;;;;;;;7.15;4.57;;;;;;;17.17;82.81;100161.78;4978698;28;20447;-75